createdAt,value
2023-06-19T00:01:09.752Z,8.50
2023-06-19T00:03:40.670Z,10.00
2023-06-19T00:06:08.970Z,7.50
2023-06-19T00:08:37.714Z,12.00
2023-06-19T00:11:06.048Z,15.33
2023-06-19T00:13:35.235Z,14.50
2023-06-19T00:16:03.557Z,15.75
2023-06-19T00:18:32.166Z,16.67
2023-06-19T00:21:00.493Z,14.50
2023-06-19T00:23:28.834Z,19.50
2023-06-19T00:25:57.134Z,18.00
2023-06-19T00:28:25.458Z,16.33
2023-06-19T00:30:53.698Z,16.50
2023-06-19T00:33:22.804Z,15.00
2023-06-19T00:35:55.659Z,17.50
2023-06-19T00:38:25.028Z,17.50
2023-06-19T00:40:53.275Z,15.33
2023-06-19T00:43:21.599Z,18.75
2023-06-19T00:45:49.963Z,16.50
2023-06-19T00:48:18.625Z,16.50
2023-06-19T00:50:46.958Z,15.50
2023-06-19T00:53:15.693Z,16.50
2023-06-19T00:55:45.328Z,14.00
2023-06-19T00:58:13.784Z,16.50
2023-06-19T01:00:47.468Z,16.00
2023-06-19T01:03:21.188Z,16.00
2023-06-19T01:05:50.314Z,16.00
2023-06-19T01:08:36.602Z,15.00
2023-06-19T01:11:18.023Z,12.67
2023-06-19T01:14:11.230Z,13.00
2023-06-19T01:16:40.313Z,8.33
2023-06-19T01:19:11.863Z,14.00
2023-06-19T01:21:40.353Z,13.75
2023-06-19T01:24:08.583Z,15.00
2023-06-19T01:26:36.890Z,15.67
2023-06-19T01:29:05.517Z,13.67
2023-06-19T01:31:45.902Z,12.75
2023-06-19T01:34:16.464Z,12.00
2023-06-19T01:36:45.212Z,12.67
2023-06-19T01:39:13.772Z,12.00
2023-06-19T01:41:42.508Z,10.00
2023-06-19T01:44:10.867Z,12.00
2023-06-19T01:46:39.261Z,9.00
2023-06-19T01:49:10.042Z,9.33
2023-06-19T01:51:38.413Z,10.67
2023-06-19T01:54:06.986Z,8.00
2023-06-19T01:56:35.233Z,10.50
2023-06-19T01:59:04.007Z,5.50
2023-06-19T02:01:32.313Z,7.00
2023-06-19T02:04:00.771Z,7.00
2023-06-19T02:06:31.492Z,8.00
2023-06-19T02:08:59.830Z,8.00
2023-06-19T02:11:28.104Z,9.00
2023-06-19T02:13:56.507Z,7.33
2023-06-19T02:16:24.861Z,6.33
2023-06-19T02:18:53.163Z,6.75
2023-06-19T02:21:21.489Z,6.50
2023-06-19T02:23:49.869Z,7.67
2023-06-19T02:26:18.180Z,6.67
2023-06-19T02:28:46.512Z,8.33
2023-06-19T02:31:14.767Z,6.67
2023-06-19T02:33:42.987Z,7.25
2023-06-19T02:36:12.211Z,7.67
2023-06-19T02:38:40.449Z,5.00
2023-06-19T02:41:08.701Z,6.33
2023-06-19T02:43:36.975Z,5.00
2023-06-19T02:46:05.358Z,6.00
2023-06-19T02:48:33.661Z,5.00
2023-06-19T02:51:02.215Z,5.00
2023-06-19T02:53:30.551Z,5.00
2023-06-19T02:55:58.897Z,4.50
2023-06-19T02:58:28.144Z,4.00
2023-06-19T03:00:56.582Z,5.00
2023-06-19T03:03:24.999Z,4.00
2023-06-19T03:05:53.350Z,4.00
2023-06-19T03:08:21.649Z,4.50
2023-06-19T03:10:49.959Z,4.50
2023-06-19T03:13:18.359Z,3.00
2023-06-19T03:15:46.660Z,4.50
2023-06-19T03:18:14.951Z,5.50
2023-06-19T03:20:43.358Z,4.00
2023-06-19T03:23:11.750Z,3.00
2023-06-19T03:25:44.057Z,3.00
2023-06-19T03:28:12.283Z,4.00
2023-06-19T03:30:40.541Z,4.00
2023-06-19T03:33:09.040Z,2.67
2023-06-19T03:35:37.401Z,2.75
2023-06-19T03:38:05.754Z,3.00
2023-06-19T03:40:34.052Z,2.67
2023-06-19T03:43:02.257Z,3.00
2023-06-19T03:45:30.581Z,2.00
2023-06-19T03:47:58.946Z,2.67
2023-06-19T03:50:27.695Z,2.75
2023-06-19T03:52:56.105Z,3.00
2023-06-19T03:55:24.536Z,3.50
2023-06-19T03:57:54.114Z,2.00
2023-06-19T04:00:22.876Z,3.00
2023-06-19T04:02:51.718Z,3.00
2023-06-19T04:05:21.021Z,3.00
2023-06-19T04:07:49.598Z,3.00
2023-06-19T04:10:18.158Z,2.00
2023-06-19T04:12:46.920Z,3.00
2023-06-19T04:15:15.322Z,3.00
2023-06-19T04:17:43.643Z,2.00
2023-06-19T04:20:12.913Z,3.33
2023-06-19T04:22:42.539Z,2.67
2023-06-19T04:25:12.212Z,1.75
2023-06-19T04:27:40.702Z,3.67
2023-06-19T04:30:09.656Z,2.00
2023-06-19T04:32:42.070Z,2.00
2023-06-19T04:35:11.491Z,2.67
2023-06-19T04:37:39.952Z,3.00
2023-06-19T04:40:09.381Z,0.00
2023-06-19T04:42:39.725Z,2.00
2023-06-19T04:45:08.681Z,3.00
2023-06-19T04:47:51.656Z,3.00
2023-06-19T04:50:22.923Z,3.00
2023-06-19T04:52:52.710Z,2.50
2023-06-19T04:55:21.427Z,2.00
2023-06-19T04:57:49.676Z,2.25
2023-06-19T05:00:21.009Z,2.00
2023-06-19T05:02:49.617Z,0.00
2023-06-19T05:05:20.245Z,2.67
2023-06-19T05:07:50.114Z,2.00
2023-06-19T05:10:18.525Z,2.00
2023-06-19T05:12:46.861Z,3.00
2023-06-19T05:15:15.188Z,3.00
2023-06-19T05:17:43.672Z,2.00
2023-06-19T05:20:13.058Z,2.50
2023-06-19T05:22:41.405Z,1.67
2023-06-19T05:25:10.264Z,0.00
2023-06-19T05:27:38.598Z,2.50
2023-06-19T05:30:07.616Z,2.00
2023-06-19T05:32:36.016Z,1.00
2023-06-19T05:35:04.508Z,1.00
2023-06-19T05:37:32.764Z,1.00
2023-06-19T05:40:01.045Z,2.00
2023-06-19T05:42:29.413Z,2.00
2023-06-19T05:44:57.740Z,2.00
2023-06-19T05:47:27.241Z,1.00
2023-06-19T05:49:55.702Z,1.00
2023-06-19T05:52:24.613Z,1.33
2023-06-19T05:54:54.972Z,1.25
2023-06-19T05:57:23.363Z,1.67
2023-06-19T05:59:52.269Z,1.00
2023-06-19T06:02:21.260Z,2.67
2023-06-19T06:04:49.705Z,2.25
2023-06-19T06:07:18.005Z,2.00
2023-06-19T06:09:46.349Z,2.00
2023-06-19T06:12:14.660Z,1.50
2023-06-19T06:14:43.218Z,2.00
2023-06-19T06:17:11.623Z,1.00
2023-06-19T06:19:40.364Z,2.00
2023-06-19T06:22:08.784Z,1.00
2023-06-19T06:24:37.176Z,1.00
2023-06-19T06:27:06.452Z,1.50
2023-06-19T06:29:35.413Z,1.00
2023-06-19T06:32:08.630Z,1.33
2023-06-19T06:34:37.035Z,1.67
2023-06-19T06:37:06.873Z,1.00
2023-06-19T06:39:35.468Z,2.00
2023-06-19T06:42:04.012Z,1.00
2023-06-19T06:44:32.300Z,2.00
2023-06-19T06:47:00.667Z,1.00
2023-06-19T06:49:29.145Z,0.25
2023-06-19T06:51:58.006Z,2.00
2023-06-19T06:54:26.871Z,1.67
2023-06-19T06:56:58.908Z,2.00
2023-06-19T06:59:30.668Z,2.50
2023-06-19T07:01:58.993Z,1.00
2023-06-19T07:04:27.306Z,1.00
2023-06-19T07:06:55.669Z,1.67
2023-06-19T07:09:23.921Z,2.25
2023-06-19T07:11:53.893Z,2.00
2023-06-19T07:14:22.654Z,2.50
2023-06-19T07:16:51.958Z,2.33
2023-06-19T07:19:20.464Z,2.00
2023-06-19T07:21:51.410Z,2.00
2023-06-19T07:24:19.818Z,3.00
2023-06-19T07:26:48.497Z,2.75
2023-06-19T07:29:16.910Z,1.50
2023-06-19T07:31:45.478Z,2.00
2023-06-19T07:34:15.048Z,2.33
2023-06-19T07:36:43.666Z,3.00
2023-06-19T07:39:11.977Z,2.00
2023-06-19T07:41:40.149Z,2.00
2023-06-19T07:44:08.393Z,2.25
2023-06-19T07:46:36.786Z,2.67
2023-06-19T07:49:05.152Z,3.00
2023-06-19T07:51:33.379Z,3.00
2023-06-19T07:54:01.686Z,3.00
2023-06-19T07:56:29.896Z,2.00
2023-06-19T07:58:58.204Z,3.00
2023-06-19T08:01:26.470Z,2.50
2023-06-19T08:03:54.847Z,2.00
2023-06-19T08:06:23.197Z,2.00
2023-06-19T08:08:52.611Z,2.00
2023-06-19T08:11:20.933Z,2.75
2023-06-19T08:13:49.153Z,3.33
2023-06-19T08:16:17.534Z,3.00
2023-06-19T08:18:46.322Z,3.00
2023-06-19T08:21:14.895Z,5.00
2023-06-19T08:23:45.014Z,4.00
2023-06-19T08:26:13.464Z,2.00
2023-06-19T08:28:42.749Z,2.50
2023-06-19T08:31:11.655Z,2.50
2023-06-19T08:33:39.871Z,4.00
2023-06-19T08:36:08.073Z,3.00
2023-06-19T08:38:36.267Z,2.75
2023-06-19T08:41:04.657Z,2.00
2023-06-19T08:43:32.974Z,3.00
2023-06-19T08:46:10.664Z,3.00
2023-06-19T08:48:39.706Z,3.50
2023-06-19T08:51:08.556Z,3.25
2023-06-19T08:53:38.472Z,3.33
2023-06-19T08:56:06.721Z,3.00
2023-06-19T08:58:35.005Z,3.00
2023-06-19T09:01:03.370Z,3.00
2023-06-19T09:03:31.887Z,2.00
2023-06-19T09:06:09.380Z,2.50
2023-06-19T09:08:38.732Z,3.00
2023-06-19T09:11:09.119Z,2.00
2023-06-19T09:13:38.946Z,3.00
2023-06-19T09:16:08.880Z,2.00
2023-06-19T09:18:48.566Z,3.00
2023-06-19T09:21:23.122Z,2.00
2023-06-19T09:23:53.177Z,3.00
2023-06-19T09:26:21.689Z,1.75
2023-06-19T09:28:51.659Z,2.33
2023-06-19T09:31:19.964Z,4.00
2023-06-19T09:33:48.367Z,2.00
2023-06-19T09:36:17.096Z,3.00
2023-06-19T09:38:48.051Z,3.00
2023-06-19T09:41:16.969Z,1.00
2023-06-19T09:43:47.710Z,3.00
2023-06-19T09:46:16.471Z,3.00
2023-06-19T09:48:46.452Z,3.00
2023-06-19T09:51:23.345Z,3.00
2023-06-19T09:53:54.850Z,3.67
2023-06-19T09:56:23.753Z,3.00
2023-06-19T09:58:54.961Z,4.00
2023-06-19T10:01:24.290Z,2.50
2023-06-19T10:04:03.561Z,3.00
2023-06-19T10:06:31.858Z,2.00
2023-06-19T10:09:09.028Z,3.00
2023-06-19T10:11:48.689Z,3.00
2023-06-19T10:14:19.706Z,3.00
2023-06-19T10:16:48.128Z,3.00
2023-06-19T10:19:22.472Z,2.00
2023-06-19T10:21:54.573Z,4.00
2023-06-19T10:24:25.606Z,3.00
2023-06-19T10:27:02.224Z,1.67
2023-06-19T10:29:41.531Z,3.00
2023-06-19T10:32:13.274Z,3.00
2023-06-19T10:34:48.361Z,3.00
2023-06-19T10:37:17.368Z,3.25
2023-06-19T10:39:45.894Z,3.00
2023-06-19T10:42:14.116Z,4.00
2023-06-19T10:44:43.524Z,2.50
2023-06-19T10:47:11.852Z,3.50
2023-06-19T10:49:40.274Z,4.00
2023-06-19T10:52:08.892Z,3.50
2023-06-19T10:54:37.152Z,3.33
2023-06-19T10:57:06.212Z,3.00
2023-06-19T10:59:35.232Z,3.00
2023-06-19T11:02:03.656Z,4.00
2023-06-19T11:04:32.023Z,4.00
2023-06-19T11:07:06.679Z,4.00
2023-06-19T11:09:34.882Z,3.00
2023-06-19T11:12:03.136Z,2.00
2023-06-19T11:14:31.791Z,4.00
2023-06-19T11:17:00.132Z,1.00
2023-06-19T11:19:31.987Z,3.50
2023-06-19T11:22:02.268Z,4.00
2023-06-19T11:24:30.893Z,2.50
2023-06-19T11:27:00.467Z,2.25
2023-06-19T11:29:31.789Z,4.00
2023-06-19T11:32:11.941Z,5.00
2023-06-19T11:34:40.334Z,3.00
2023-06-19T11:37:22.513Z,4.00
2023-06-19T11:39:53.441Z,3.50
2023-06-19T11:42:21.792Z,3.50
2023-06-19T11:45:09.369Z,3.00
2023-06-19T11:47:38.727Z,4.00
2023-06-19T11:50:07.837Z,4.00
2023-06-19T11:52:36.111Z,3.00
2023-06-19T11:55:04.638Z,4.00
2023-06-19T11:57:34.415Z,4.00
2023-06-19T12:00:05.464Z,3.33
2023-06-19T12:02:34.017Z,3.00
2023-06-19T12:05:02.448Z,4.00
2023-06-19T12:07:30.687Z,3.50
2023-06-19T12:10:00.012Z,4.00
2023-06-19T12:12:29.080Z,3.00
2023-06-19T12:14:57.296Z,2.67
2023-06-19T12:17:25.598Z,2.33
2023-06-19T12:19:54.559Z,3.00
2023-06-19T12:22:22.716Z,3.00
2023-06-19T12:24:51.155Z,3.50
2023-06-19T12:27:19.397Z,3.25
2023-06-19T12:29:47.622Z,2.25
2023-06-19T12:32:15.871Z,4.00
2023-06-19T12:34:47.991Z,3.00
2023-06-19T12:37:18.773Z,3.00
2023-06-19T12:39:47.103Z,1.00
2023-06-19T12:42:15.480Z,3.50
2023-06-19T12:44:45.424Z,3.00
2023-06-19T12:47:13.933Z,2.50
2023-06-19T12:49:42.107Z,2.50
2023-06-19T12:52:10.529Z,3.00
2023-06-19T12:54:38.769Z,3.00
2023-06-19T12:57:07.393Z,4.00
2023-06-19T12:59:35.747Z,3.00
2023-06-19T13:02:04.616Z,3.00
2023-06-19T13:04:33.040Z,3.00
2023-06-19T13:07:01.325Z,3.00
2023-06-19T13:09:29.566Z,4.00
2023-06-19T13:11:57.820Z,3.25
2023-06-19T13:14:26.027Z,4.00
2023-06-19T13:16:54.378Z,3.00
2023-06-19T13:19:22.609Z,3.33
2023-06-19T13:21:50.877Z,3.00
2023-06-19T13:24:19.240Z,2.00
2023-06-19T13:26:47.508Z,3.00
2023-06-19T13:29:16.529Z,2.50
2023-06-19T13:31:44.760Z,3.00
2023-06-19T13:34:13.156Z,2.50
2023-06-19T13:36:41.372Z,4.00
2023-06-19T13:39:10.214Z,4.00
2023-06-19T13:41:38.466Z,3.50
2023-06-19T13:44:06.825Z,4.50
2023-06-19T13:46:35.526Z,4.50
2023-06-19T13:49:03.832Z,4.00
2023-06-19T13:51:32.285Z,4.00
2023-06-19T13:54:00.610Z,3.33
2023-06-19T13:56:28.835Z,3.00
2023-06-19T13:58:57.128Z,3.00
2023-06-19T14:01:26.799Z,4.00
2023-06-19T14:03:55.214Z,3.50
2023-06-19T14:06:23.358Z,4.00
2023-06-19T14:08:52.022Z,3.00
2023-06-19T14:11:20.687Z,3.67
2023-06-19T14:13:49.036Z,4.00
2023-06-19T14:16:17.632Z,3.00
2023-06-19T14:18:46.039Z,2.00
2023-06-19T14:21:14.293Z,5.00
2023-06-19T14:23:44.661Z,4.00
2023-06-19T14:26:13.037Z,3.25
2023-06-19T14:28:41.232Z,3.00
2023-06-19T14:31:09.560Z,4.00
2023-06-19T14:33:39.225Z,4.00
2023-06-19T14:36:07.600Z,4.00
2023-06-19T14:38:35.860Z,3.50
2023-06-19T14:41:04.270Z,4.00
2023-06-19T14:43:34.367Z,4.00
2023-06-19T14:46:05.410Z,4.00
2023-06-19T14:48:33.830Z,4.00
2023-06-19T14:51:02.757Z,4.67
2023-06-19T14:53:31.064Z,4.00
2023-06-19T14:55:59.230Z,5.50
2023-06-19T14:58:29.937Z,3.50
2023-06-19T15:00:59.395Z,4.00
2023-06-19T15:03:27.720Z,4.00
2023-06-19T15:05:56.104Z,4.00
2023-06-19T15:08:25.475Z,5.00
2023-06-19T15:10:53.891Z,4.00
2023-06-19T15:13:22.237Z,5.00
2023-06-19T15:15:52.178Z,5.00
2023-06-19T15:18:20.729Z,5.00
2023-06-19T15:20:49.374Z,5.50
2023-06-19T15:23:18.207Z,5.50
2023-06-19T15:25:46.870Z,4.33
2023-06-19T15:28:15.096Z,5.33
2023-06-19T15:30:43.280Z,5.00
2023-06-19T15:45:35.309Z,4.75
2023-06-19T15:48:03.958Z,4.25
2023-06-19T15:50:34.236Z,5.50
2023-06-19T15:53:02.967Z,6.00
2023-06-19T15:55:31.294Z,6.50
2023-06-19T15:57:59.555Z,5.25
2023-06-19T16:00:28.067Z,4.50
2023-06-19T16:02:56.680Z,5.25
2023-06-19T16:05:27.244Z,5.00
2023-06-19T16:07:55.618Z,8.25
2023-06-19T16:10:24.121Z,7.50
2023-06-19T16:12:52.623Z,7.00
2023-06-19T16:15:26.077Z,6.00
2023-06-19T16:17:56.098Z,6.00
2023-06-19T16:20:24.640Z,8.00
2023-06-19T16:22:53.566Z,6.00
2023-06-19T16:25:23.978Z,5.33
2023-06-19T16:27:52.561Z,7.67
2023-06-19T16:30:20.991Z,4.75
2023-06-19T16:32:49.458Z,4.50
2023-06-19T16:35:23.495Z,7.00
2023-06-19T16:37:55.214Z,6.00
2023-06-19T16:40:26.531Z,7.00
2023-06-19T16:42:56.388Z,5.67
2023-06-19T16:45:27.896Z,5.50
2023-06-19T16:47:56.486Z,6.00
2023-06-19T16:50:25.232Z,6.00
2023-06-19T16:52:53.913Z,6.33
2023-06-19T16:55:23.805Z,5.00
2023-06-19T16:57:52.180Z,7.00
2023-06-19T17:00:20.717Z,6.00
2023-06-19T17:02:49.786Z,7.00
2023-06-19T17:05:18.162Z,5.00
2023-06-19T17:07:46.781Z,6.25
2023-06-19T17:10:18.171Z,7.50
2023-06-19T17:12:46.525Z,7.25
2023-06-19T17:15:15.269Z,7.67
2023-06-19T17:17:43.745Z,7.00
2023-06-19T17:20:13.622Z,4.75
2023-06-19T17:22:41.969Z,6.33
2023-06-19T17:25:10.416Z,8.00
2023-06-19T17:27:38.724Z,6.00
2023-06-19T17:30:07.907Z,8.00
2023-06-19T17:32:36.441Z,5.00
2023-06-19T17:35:06.623Z,6.33
2023-06-19T17:37:35.035Z,6.25
2023-06-19T17:40:07.601Z,7.50
2023-06-19T17:42:35.922Z,7.50
2023-06-19T17:45:04.593Z,5.00
2023-06-19T17:47:33.208Z,8.00
2023-06-19T17:50:01.961Z,6.00
2023-06-19T17:52:30.251Z,7.75
2023-06-19T17:54:58.646Z,7.00
2023-06-19T17:57:27.369Z,7.00
2023-06-19T17:59:55.768Z,6.67
2023-06-19T18:02:24.276Z,6.00
2023-06-19T18:04:53.010Z,7.00
2023-06-19T18:07:21.344Z,7.33
2023-06-19T18:09:49.996Z,7.00
2023-06-19T18:12:18.756Z,7.33
2023-06-19T18:14:47.491Z,8.33
2023-06-19T18:17:16.445Z,9.00
2023-06-19T18:19:44.901Z,7.33
2023-06-19T18:22:13.204Z,8.67
2023-06-19T18:24:42.858Z,6.00
2023-06-19T18:27:11.346Z,9.00
2023-06-19T18:29:39.664Z,8.33
2023-06-19T18:32:08.231Z,7.33
2023-06-19T18:34:36.616Z,7.50
2023-06-19T18:37:05.214Z,9.00
2023-06-19T18:39:35.738Z,7.33
2023-06-19T18:42:05.142Z,6.67
2023-06-19T18:44:33.477Z,9.00
2023-06-19T18:47:01.827Z,8.00
2023-06-19T18:49:32.327Z,7.67
2023-06-19T18:52:00.993Z,7.00
2023-06-19T18:54:29.719Z,6.00
2023-06-19T18:56:58.012Z,8.00
2023-06-19T18:59:26.256Z,7.75
2023-06-19T19:01:54.702Z,7.00
2023-06-19T19:04:23.085Z,7.00
2023-06-19T19:06:51.377Z,6.33
2023-06-19T19:09:19.777Z,6.50
2023-06-19T19:11:50.564Z,8.00
2023-06-19T19:14:18.838Z,7.00
2023-06-19T19:16:47.294Z,9.00
2023-06-19T19:19:15.738Z,5.00
2023-06-19T19:21:44.112Z,8.50
2023-06-19T19:24:12.442Z,9.33
2023-06-19T19:26:43.723Z,9.25
2023-06-19T19:29:12.150Z,8.50
2023-06-19T19:31:40.619Z,7.00
2023-06-19T19:34:09.156Z,8.00
2023-06-19T19:36:37.521Z,9.00
2023-06-19T19:39:06.020Z,6.33
2023-06-19T19:41:34.488Z,6.00
2023-06-19T19:44:02.832Z,8.33
2023-06-19T19:46:31.244Z,7.67
2023-06-19T19:48:59.656Z,9.00
2023-06-19T19:51:28.305Z,8.00
2023-06-19T19:53:56.651Z,8.00
2023-06-19T19:56:25.365Z,8.67
2023-06-19T19:58:53.841Z,8.33
2023-06-19T20:01:22.311Z,8.50
2023-06-19T20:03:50.860Z,9.00
2023-06-19T20:06:19.360Z,9.00
2023-06-19T20:08:48.073Z,7.50
2023-06-19T20:11:16.445Z,10.00
2023-06-19T20:13:44.948Z,10.00
2023-06-19T20:16:13.549Z,11.00
2023-06-19T20:18:42.510Z,11.00
2023-06-19T20:21:10.877Z,10.00
2023-06-19T20:23:39.290Z,6.50
2023-06-19T20:26:07.627Z,8.67
2023-06-19T20:28:36.152Z,9.50
2023-06-19T20:31:04.721Z,8.00
2023-06-19T20:33:33.173Z,9.25
2023-06-19T20:36:02.316Z,11.00
2023-06-19T20:38:30.824Z,8.50
2023-06-19T20:41:02.011Z,9.00
2023-06-19T20:43:30.674Z,8.00
2023-06-19T20:46:01.988Z,8.33
2023-06-19T20:48:30.632Z,9.75
2023-06-19T20:50:59.119Z,10.00
2023-06-19T20:53:27.768Z,9.00
2023-06-19T20:55:56.210Z,7.00
2023-06-19T20:58:28.614Z,10.67
2023-06-19T21:00:57.172Z,7.50
2023-06-19T21:03:28.315Z,8.00
2023-06-19T21:05:59.534Z,9.25
2023-06-19T21:08:31.456Z,10.50
2023-06-19T21:11:00.151Z,10.00
2023-06-19T21:13:28.651Z,10.00
2023-06-19T21:15:56.927Z,8.33
2023-06-19T21:18:25.313Z,5.67
2023-06-19T21:20:57.133Z,8.00
2023-06-19T21:23:25.726Z,10.00
2023-06-19T21:25:54.326Z,8.00
2023-06-19T21:28:22.740Z,8.67
2023-06-19T21:30:51.115Z,8.25
2023-06-19T21:33:21.444Z,10.00
2023-06-19T21:35:51.233Z,6.50
2023-06-19T21:38:19.820Z,7.00
2023-06-19T21:40:48.028Z,8.50
2023-06-19T21:43:16.511Z,10.00
2023-06-19T21:45:45.031Z,7.67
2023-06-19T21:48:13.661Z,4.00
2023-06-19T21:50:41.990Z,8.25
2023-06-19T21:53:10.350Z,8.00
2023-06-19T21:55:38.794Z,7.00
2023-06-19T21:58:07.193Z,7.75
2023-06-19T22:00:35.537Z,7.50
2023-06-19T22:03:04.218Z,8.00
2023-06-19T22:05:32.706Z,8.50
2023-06-19T22:08:01.039Z,6.00
2023-06-19T22:10:29.471Z,7.00
2023-06-19T22:12:57.950Z,5.67
2023-06-19T22:15:26.558Z,7.00
2023-06-19T22:17:54.965Z,8.33
2023-06-19T22:20:23.491Z,7.00
2023-06-19T22:22:51.940Z,8.50
2023-06-19T22:25:20.345Z,8.25
2023-06-19T22:27:50.144Z,8.00
2023-06-19T22:30:18.661Z,6.50
2023-06-19T22:32:47.061Z,6.00
2023-06-19T22:35:15.497Z,6.00
2023-06-19T22:37:44.314Z,6.00
2023-06-19T22:40:13.084Z,7.25
2023-06-19T22:42:42.933Z,8.00
2023-06-19T22:45:12.875Z,6.00
2023-06-19T22:47:41.817Z,8.00
2023-06-19T22:50:11.762Z,8.00
2023-06-19T22:52:40.501Z,7.00
2023-06-19T22:55:08.888Z,5.25
2023-06-19T22:57:37.565Z,5.00
2023-06-19T23:00:09.428Z,6.00
2023-06-19T23:02:37.988Z,8.50
2023-06-19T23:05:06.950Z,7.00
2023-06-19T23:07:35.275Z,6.00
2023-06-19T23:10:09.090Z,5.33
2023-06-19T23:12:38.162Z,6.67
2023-06-19T23:15:09.754Z,7.00
2023-06-19T23:17:38.046Z,6.00
2023-06-19T23:20:12.134Z,4.00
2023-06-19T23:22:41.304Z,6.00
2023-06-19T23:25:10.007Z,2.25
2023-06-19T23:27:38.368Z,6.00
2023-06-19T23:30:07.299Z,5.00
2023-06-19T23:32:35.590Z,7.00
2023-06-19T23:35:05.188Z,7.50
2023-06-19T23:37:33.606Z,6.00
2023-06-19T23:40:01.932Z,5.50
2023-06-19T23:42:30.205Z,6.00
2023-06-19T23:44:58.495Z,4.67
2023-06-19T23:47:26.802Z,7.00
2023-06-19T23:49:55.249Z,5.50
2023-06-19T23:52:33.950Z,5.50
2023-06-19T23:55:10.900Z,6.00
2023-06-19T23:57:39.517Z,6.00
